Wetterdaten: Woche 30.09.13 - 06.10.13 (KW40)
Datum Zeit Temperatur Luftfeuchte Luftdruck Niederschlag Windrichtung Sonnenschein Solar Wind
30.09.2013 00:00 10,8 C 84 % 1005,0 hPa 0,0 l/m O-NO 0,00 h 0 W/m 6,4 km/h (2 Bft)
30.09.2013 01:00 10,6 C 86 % 1004,9 hPa 0,0 l/m O-NO 0,00 h 0 W/m 4,1 km/h (1 Bft)
30.09.2013 02:00 10,0 C 87 % 1004,7 hPa 0,0 l/m NO 0,00 h 0 W/m 6,5 km/h (2 Bft)
30.09.2013 03:00 9,7 C 88 % 1004,5 hPa 0,0 l/m NO 0,00 h 0 W/m 6,5 km/h (2 Bft)
30.09.2013 04:00 9,4 C 88 % 1004,4 hPa 0,0 l/m NO 0,00 h 0 W/m 6,7 km/h (2 Bft)
30.09.2013 05:00 9,2 C 89 % 1004,5 hPa 0,0 l/m NO 0,00 h 0 W/m 9,0 km/h (2 Bft)
30.09.2013 06:00 8,7 C 91 % 1004,5 hPa 0,0 l/m NO 0,00 h 0 W/m 8,4 km/h (2 Bft)
30.09.2013 07:00 8,3 C 91 % 1004,7 hPa 0,0 l/m N-NO 0,00 h 7 W/m 6,5 km/h (2 Bft)
30.09.2013 08:00 8,3 C 93 % 1004,9 hPa 0,0 l/m NO 0,00 h 23 W/m 7,1 km/h (2 Bft)
30.09.2013 09:00 8,3 C 93 % 1005,1 hPa 0,0 l/m NO 0,00 h 42 W/m 7,3 km/h (2 Bft)
30.09.2013 10:00 8,6 C 92 % 1005,2 hPa 0,0 l/m NO 0,00 h 55 W/m 7,5 km/h (2 Bft)
30.09.2013 11:00 8,8 C 92 % 1005,2 hPa 0,0 l/m NO 0,00 h 75 W/m 6,9 km/h (2 Bft)
30.09.2013 12:00 9,0 C 92 % 1005,4 hPa 0,0 l/m O-NO 0,00 h 85 W/m 7,6 km/h (2 Bft)
30.09.2013 13:00 9,4 C 91 % 1005,8 hPa 0,0 l/m O-NO 0,00 h 77 W/m 5,9 km/h (2 Bft)
30.09.2013 14:00 9,7 C 89 % 1005,9 hPa 0,0 l/m O-NO 0,00 h 73 W/m 7,6 km/h (2 Bft)
30.09.2013 15:00 9,9 C 88 % 1006,2 hPa 0,0 l/m O-NO 0,00 h 53 W/m 7,1 km/h (2 Bft)
30.09.2013 16:00 9,8 C 89 % 1006,6 hPa 0,0 l/m O-NO 0,00 h 38 W/m 6,9 km/h (2 Bft)
30.09.2013 17:00 9,7 C 91 % 1006,9 hPa 0,0 l/m O-NO 0,00 h 23 W/m 5,6 km/h (1 Bft)
30.09.2013 18:00 9,4 C 93 % 1007,1 hPa 0,0 l/m O-NO 0,00 h 10 W/m 5,6 km/h (1 Bft)
30.09.2013 19:00 9,3 C 93 % 1007,5 hPa 0,0 l/m O-NO 0,00 h 0 W/m 4,4 km/h (1 Bft)
30.09.2013 20:00 9,1 C 94 % 1007,7 hPa 0,0 l/m N 0,00 h 0 W/m 3,6 km/h (1 Bft)
30.09.2013 21:00 9,0 C 95 % 1008,0 hPa 0,0 l/m O-NO 0,00 h 0 W/m 2,8 km/h (1 Bft)
30.09.2013 22:00 8,9 C 95 % 1008,1 hPa 0,0 l/m N 0,00 h 0 W/m 2,9 km/h (1 Bft)
30.09.2013 23:00 8,8 C 96 % 1008,3 hPa 0,0 l/m N 0,00 h 0 W/m 0,4 km/h (0 Bft)
01.10.2013 00:00 8,8 C 96 % 1008,3 hPa 0,0 l/m O-NO 0,00 h 0 W/m 1,6 km/h (1 Bft)
01.10.2013 01:00 8,7 C 96 % 1008,4 hPa 0,0 l/m O-NO 0,00 h 0 W/m 1,3 km/h (1 Bft)
01.10.2013 02:00 8,6 C 96 % 1008,6 hPa 0,0 l/m O-NO 0,00 h 0 W/m 1,9 km/h (1 Bft)
01.10.2013 03:00 8,8 C 97 % 1008,2 hPa 0,0 l/m N 0,00 h 0 W/m 2,3 km/h (1 Bft)
01.10.2013 04:00 8,6 C 96 % 1008,3 hPa 0,0 l/m N 0,00 h 0 W/m 1,2 km/h (1 Bft)
01.10.2013 05:00 8,2 C 96 % 1008,3 hPa 0,0 l/m N 0,00 h 0 W/m 0,0 km/h (0 Bft)
01.10.2013 06:00 8,0 C 96 % 1008,5 hPa 0,0 l/m N 0,00 h 0 W/m 0,0 km/h (0 Bft)
01.10.2013 07:00 8,0 C 97 % 1008,9 hPa 0,0 l/m N 0,00 h 9 W/m 0,0 km/h (0 Bft)
01.10.2013 08:00 8,3 C 97 % 1009,3 hPa 0,0 l/m O-NO 0,00 h 42 W/m 1,1 km/h (0 Bft)
01.10.2013 09:00 8,7 C 97 % 1009,6 hPa 0,0 l/m O-NO 0,00 h 41 W/m 5,3 km/h (1 Bft)
01.10.2013 10:00 9,1 C 96 % 1010,0 hPa 0,0 l/m O-NO 0,00 h 65 W/m 3,7 km/h (1 Bft)
01.10.2013 11:00 10,1 C 91 % 1010,4 hPa 0,0 l/m O-NO 0,00 h 166 W/m 5,2 km/h (1 Bft)
01.10.2013 12:00 11,8 C 84 % 1010,4 hPa 0,0 l/m O-NO 0,83 h 580 W/m 7,9 km/h (2 Bft)
01.10.2013 13:00 12,6 C 77 % 1010,0 hPa 0,0 l/m O-NO 0,08 h 235 W/m 6,7 km/h (2 Bft)
01.10.2013 14:00 13,7 C 72 % 1009,9 hPa 0,0 l/m O-NO 0,92 h 459 W/m 9,0 km/h (2 Bft)
01.10.2013 15:00 14,1 C 70 % 1010,0 hPa 0,0 l/m O-NO 0,67 h 370 W/m 10,6 km/h (2 Bft)
01.10.2013 16:00 14,4 C 69 % 1010,3 hPa 0,0 l/m O-NO 0,83 h 313 W/m 12,2 km/h (2 Bft)
01.10.2013 17:00 13,6 C 72 % 1010,7 hPa 0,0 l/m O 0,92 h 192 W/m 10,7 km/h (2 Bft)
01.10.2013 18:00 12,3 C 77 % 1011,3 hPa 0,0 l/m O 0,00 h 27 W/m 5,5 km/h (1 Bft)
01.10.2013 19:00 10,2 C 87 % 1011,7 hPa 0,0 l/m O-NO 0,00 h 0 W/m 3,6 km/h (1 Bft)
01.10.2013 20:00 9,4 C 89 % 1012,4 hPa 0,0 l/m O-NO 0,00 h 0 W/m 6,4 km/h (2 Bft)
01.10.2013 21:00 8,4 C 91 % 1012,9 hPa 0,0 l/m O-NO 0,00 h 0 W/m 3,1 km/h (1 Bft)
01.10.2013 22:00 6,9 C 95 % 1013,3 hPa 0,0 l/m N 0,00 h 0 W/m 0,7 km/h (0 Bft)
01.10.2013 23:00 6,4 C 96 % 1013,3 hPa 0,0 l/m O-NO 0,00 h 0 W/m 1,3 km/h (1 Bft)
02.10.2013 00:00 5,9 C 97 % 1013,3 hPa 0,0 l/m O-NO 0,00 h 0 W/m 4,1 km/h (1 Bft)
02.10.2013 01:00 5,5 C 97 % 1013,7 hPa 0,0 l/m O-NO 0,00 h 0 W/m 3,5 km/h (1 Bft)
02.10.2013 02:00 5,2 C 97 % 1014,1 hPa 0,0 l/m O-NO 0,00 h 0 W/m 3,9 km/h (1 Bft)
02.10.2013 03:00 5,1 C 98 % 1014,0 hPa 0,0 l/m O-NO 0,00 h 0 W/m 3,5 km/h (1 Bft)
02.10.2013 04:00 5,9 C 98 % 1014,2 hPa 0,0 l/m NO 0,00 h 0 W/m 4,3 km/h (1 Bft)
02.10.2013 05:00 6,1 C 98 % 1014,4 hPa 0,0 l/m NO 0,00 h 0 W/m 6,4 km/h (2 Bft)
02.10.2013 06:00 6,0 C 98 % 1014,8 hPa 0,0 l/m NO 0,00 h 0 W/m 8,9 km/h (2 Bft)
02.10.2013 07:00 6,4 C 98 % 1015,4 hPa 0,0 l/m O-NO 0,00 h 7 W/m 8,7 km/h (2 Bft)
02.10.2013 08:00 6,4 C 98 % 1015,8 hPa 0,0 l/m O 0,00 h 20 W/m 12,0 km/h (2 Bft)
02.10.2013 09:00 7,2 C 98 % 1016,1 hPa 0,0 l/m O-NO 0,00 h 58 W/m 12,4 km/h (3 Bft)
02.10.2013 10:00 8,2 C 93 % 1016,5 hPa 0,0 l/m O-NO 0,00 h 85 W/m 14,4 km/h (3 Bft)
02.10.2013 11:00 9,3 C 88 % 1016,7 hPa 0,0 l/m O 0,00 h 135 W/m 14,9 km/h (3 Bft)
02.10.2013 12:00 10,1 C 84 % 1017,0 hPa 0,0 l/m O 0,08 h 203 W/m 15,8 km/h (3 Bft)
02.10.2013 13:00 10,8 C 82 % 1017,0 hPa 0,0 l/m O-NO 0,17 h 257 W/m 17,3 km/h (3 Bft)
02.10.2013 14:00 12,0 C 77 % 1017,0 hPa 0,0 l/m O 0,92 h 489 W/m 18,4 km/h (3 Bft)
02.10.2013 15:00 13,6 C 70 % 1016,8 hPa 0,0 l/m O-SO 1,00 h 492 W/m 19,8 km/h (4 Bft)
02.10.2013 16:00 14,0 C 68 % 1016,8 hPa 0,0 l/m O-NO 1,00 h 345 W/m 17,0 km/h (3 Bft)
02.10.2013 17:00 13,2 C 68 % 1017,1 hPa 0,0 l/m O-NO 0,92 h 175 W/m 14,9 km/h (3 Bft)
02.10.2013 18:00 11,6 C 71 % 1017,6 hPa 0,0 l/m O-NO 0,00 h 26 W/m 10,7 km/h (2 Bft)
02.10.2013 19:00 9,8 C 77 % 1018,2 hPa 0,0 l/m NO 0,00 h 0 W/m 10,6 km/h (2 Bft)
02.10.2013 20:00 8,5 C 79 % 1018,8 hPa 0,0 l/m NO 0,00 h 0 W/m 9,9 km/h (2 Bft)
02.10.2013 21:00 7,1 C 83 % 1019,2 hPa 0,0 l/m NO 0,00 h 0 W/m 7,8 km/h (2 Bft)
02.10.2013 22:00 6,4 C 84 % 1019,5 hPa 0,0 l/m NO 0,00 h 0 W/m 7,5 km/h (2 Bft)
02.10.2013 23:00 5,5 C 86 % 1019,7 hPa 0,0 l/m N-NO 0,00 h 0 W/m 6,3 km/h (2 Bft)
03.10.2013 00:00 4,5 C 89 % 1019,6 hPa 0,0 l/m N-NO 0,00 h 0 W/m 5,3 km/h (1 Bft)
03.10.2013 01:00 3,8 C 91 % 1019,6 hPa 0,0 l/m N-NO 0,00 h 0 W/m 8,0 km/h (2 Bft)
03.10.2013 02:00 3,3 C 92 % 1019,8 hPa 0,0 l/m N-NO 0,00 h 0 W/m 6,4 km/h (2 Bft)
03.10.2013 03:00 3,7 C 92 % 1019,7 hPa 0,0 l/m N-NO 0,00 h 0 W/m 7,1 km/h (2 Bft)
03.10.2013 04:00 4,1 C 93 % 1019,4 hPa 0,0 l/m NO 0,00 h 0 W/m 8,0 km/h (2 Bft)
03.10.2013 05:00 4,2 C 93 % 1019,5 hPa 0,0 l/m NO 0,00 h 0 W/m 9,1 km/h (2 Bft)
03.10.2013 06:00 4,0 C 95 % 1019,5 hPa 0,0 l/m O-NO 0,00 h 0 W/m 7,8 km/h (2 Bft)
03.10.2013 07:00 3,6 C 95 % 1019,4 hPa 0,0 l/m NO 0,00 h 9 W/m 7,9 km/h (2 Bft)
03.10.2013 08:00 3,2 C 94 % 1019,7 hPa 0,0 l/m N-NO 0,00 h 31 W/m 9,8 km/h (2 Bft)
03.10.2013 09:00 3,2 C 93 % 1020,2 hPa 0,0 l/m N-NO 0,00 h 77 W/m 9,3 km/h (2 Bft)
03.10.2013 10:00 3,7 C 92 % 1020,6 hPa 0,0 l/m NO 0,00 h 141 W/m 8,4 km/h (2 Bft)
03.10.2013 11:00 5,5 C 88 % 1020,5 hPa 0,0 l/m O 0,67 h 439 W/m 9,7 km/h (2 Bft)
03.10.2013 12:00 8,6 C 82 % 1019,9 hPa 0,0 l/m O-NO 1,00 h 547 W/m 9,8 km/h (2 Bft)
03.10.2013 13:00 11,3 C 75 % 1019,1 hPa 0,0 l/m O-NO 1,00 h 625 W/m 14,1 km/h (3 Bft)
03.10.2013 14:00 11,6 C 74 % 1019,0 hPa 0,0 l/m O-NO 1,00 h 524 W/m 14,8 km/h (3 Bft)
03.10.2013 15:00 12,6 C 74 % 1018,6 hPa 0,0 l/m O-NO 1,00 h 472 W/m 14,9 km/h (3 Bft)
03.10.2013 16:00 14,2 C 72 % 1018,7 hPa 0,0 l/m NO 0,75 h 289 W/m 14,4 km/h (3 Bft)
03.10.2013 17:00 13,5 C 75 % 1018,7 hPa 0,0 l/m O-NO 0,00 h 46 W/m 8,2 km/h (2 Bft)
03.10.2013 18:00 12,6 C 78 % 1019,0 hPa 0,0 l/m O-NO 0,00 h 15 W/m 5,9 km/h (2 Bft)
03.10.2013 19:00 11,6 C 82 % 1019,7 hPa 0,0 l/m O-NO 0,00 h 0 W/m 4,3 km/h (1 Bft)
03.10.2013 20:00 11,1 C 80 % 1019,9 hPa 0,0 l/m NO 0,00 h 0 W/m 7,5 km/h (2 Bft)
03.10.2013 21:00 9,8 C 83 % 1020,0 hPa 0,0 l/m NO 0,00 h 0 W/m 4,8 km/h (1 Bft)
03.10.2013 22:00 9,6 C 84 % 1020,0 hPa 0,0 l/m NO 0,00 h 0 W/m 5,1 km/h (1 Bft)
03.10.2013 23:00 8,9 C 84 % 1019,9 hPa 0,0 l/m NO 0,00 h 0 W/m 5,1 km/h (1 Bft)
04.10.2013 00:00 8,7 C 83 % 1019,6 hPa 0,0 l/m NO 0,00 h 0 W/m 5,6 km/h (1 Bft)
04.10.2013 01:00 8,2 C 83 % 1019,7 hPa 0,0 l/m NO 0,00 h 0 W/m 7,5 km/h (2 Bft)
04.10.2013 02:00 8,1 C 84 % 1020,1 hPa 0,0 l/m NO 0,00 h 0 W/m 6,7 km/h (2 Bft)
04.10.2013 03:00 7,8 C 84 % 1019,9 hPa 0,0 l/m N-NO 0,00 h 0 W/m 6,0 km/h (2 Bft)
04.10.2013 04:00 7,4 C 86 % 1019,8 hPa 0,0 l/m N-NO 0,00 h 0 W/m 3,6 km/h (1 Bft)
04.10.2013 05:00 7,3 C 87 % 1020,0 hPa 0,0 l/m N-NO 0,00 h 0 W/m 3,3 km/h (1 Bft)
04.10.2013 06:00 7,2 C 88 % 1019,8 hPa 0,0 l/m N 0,00 h 0 W/m 3,6 km/h (1 Bft)
04.10.2013 07:00 7,2 C 90 % 1020,2 hPa 0,0 l/m N 0,00 h 7 W/m 0,7 km/h (0 Bft)
04.10.2013 08:00 7,4 C 91 % 1020,6 hPa 0,0 l/m N 0,00 h 15 W/m 1,2 km/h (1 Bft)
04.10.2013 09:00 7,6 C 93 % 1020,9 hPa 0,4 l/m N 0,00 h 47 W/m 0,0 km/h (0 Bft)
04.10.2013 10:00 9,4 C 92 % 1020,8 hPa 0,0 l/m N-NO 0,42 h 275 W/m 2,9 km/h (1 Bft)
04.10.2013 11:00 11,3 C 90 % 1020,8 hPa 0,0 l/m N-NO 0,00 h 111 W/m 4,1 km/h (1 Bft)
04.10.2013 12:00 12,4 C 91 % 1020,4 hPa 0,0 l/m N-NO 0,08 h 204 W/m 4,1 km/h (1 Bft)
04.10.2013 13:00 14,8 C 87 % 1019,8 hPa 0,0 l/m SO 0,67 h 398 W/m 6,1 km/h (2 Bft)
04.10.2013 14:00 17,4 C 83 % 1019,1 hPa 0,0 l/m S-SW 0,83 h 466 W/m 6,8 km/h (2 Bft)
04.10.2013 15:00 18,0 C 84 % 1018,6 hPa 0,0 l/m S 0,00 h 116 W/m 3,9 km/h (1 Bft)
04.10.2013 16:00 18,9 C 83 % 1018,2 hPa 0,0 l/m S 0,75 h 331 W/m 3,5 km/h (1 Bft)
04.10.2013 17:00 18,1 C 86 % 1017,5 hPa 0,0 l/m N 0,08 h 31 W/m 0,8 km/h (0 Bft)
04.10.2013 18:00 16,5 C 93 % 1017,4 hPa 0,0 l/m N 0,00 h 15 W/m 0,0 km/h (0 Bft)
04.10.2013 19:00 15,4 C 96 % 1017,3 hPa 0,0 l/m N 0,00 h 0 W/m 0,8 km/h (0 Bft)
04.10.2013 20:00 14,9 C 96 % 1017,0 hPa 0,0 l/m NW 0,00 h 0 W/m 5,2 km/h (1 Bft)
04.10.2013 21:00 14,0 C 96 % 1016,6 hPa 0,0 l/m N 0,00 h 0 W/m 6,1 km/h (2 Bft)
04.10.2013 22:00 12,0 C 96 % 1015,8 hPa 0,0 l/m N 0,00 h 0 W/m 7,8 km/h (2 Bft)
04.10.2013 23:00 10,6 C 96 % 1015,6 hPa 0,0 l/m N 0,00 h 0 W/m 7,3 km/h (2 Bft)
05.10.2013 00:00 9,7 C 96 % 1015,2 hPa 0,0 l/m N 0,00 h 0 W/m 8,0 km/h (2 Bft)
05.10.2013 01:00 9,2 C 96 % 1014,7 hPa 0,0 l/m N-NO 0,00 h 0 W/m 8,8 km/h (2 Bft)
05.10.2013 02:00 9,1 C 97 % 1014,9 hPa 0,0 l/m N-NO 0,00 h 0 W/m 6,5 km/h (2 Bft)
05.10.2013 03:00 9,1 C 98 % 1014,6 hPa 0,0 l/m N-NO 0,00 h 0 W/m 2,7 km/h (1 Bft)
05.10.2013 04:00 9,0 C 99 % 1014,3 hPa 0,0 l/m N 0,00 h 0 W/m 0,8 km/h (0 Bft)
05.10.2013 05:00 9,0 C 99 % 1014,2 hPa 0,0 l/m N 0,00 h 0 W/m 1,6 km/h (1 Bft)
05.10.2013 06:00 9,3 C 99 % 1014,0 hPa 0,0 l/m N 0,00 h 0 W/m 1,7 km/h (1 Bft)
05.10.2013 07:00 9,6 C 99 % 1014,0 hPa 2,4 l/m N-NO 0,00 h 0 W/m 4,4 km/h (1 Bft)
05.10.2013 08:00 10,4 C 99 % 1014,5 hPa 4,4 l/m N-NO 0,00 h 10 W/m 3,3 km/h (1 Bft)
05.10.2013 09:00 12,2 C 100 % 1015,1 hPa 3,0 l/m W-SW 0,00 h 28 W/m 7,5 km/h (2 Bft)
05.10.2013 10:00 12,6 C 100 % 1015,6 hPa 0,8 l/m S-SW 0,00 h 48 W/m 9,7 km/h (2 Bft)
05.10.2013 11:00 13,5 C 100 % 1015,7 hPa 0,2 l/m S-SW 0,00 h 96 W/m 10,8 km/h (2 Bft)
05.10.2013 12:00 14,5 C 100 % 1015,6 hPa 0,4 l/m S-SW 0,00 h 116 W/m 11,7 km/h (2 Bft)
05.10.2013 13:00 15,5 C 99 % 1015,3 hPa 0,0 l/m W-SW 0,00 h 189 W/m 14,9 km/h (3 Bft)
05.10.2013 14:00 16,8 C 92 % 1015,0 hPa 0,0 l/m W-SW 0,67 h 387 W/m 16,4 km/h (3 Bft)
05.10.2013 15:00 17,9 C 87 % 1014,6 hPa 0,2 l/m W-SW 0,42 h 360 W/m 13,4 km/h (3 Bft)
05.10.2013 16:00 17,3 C 86 % 1014,7 hPa 0,0 l/m W-SW 0,08 h 142 W/m 16,2 km/h (3 Bft)
05.10.2013 17:00 16,7 C 86 % 1014,8 hPa 0,0 l/m W-SW 0,08 h 29 W/m 22,4 km/h (4 Bft)
05.10.2013 18:00 15,2 C 87 % 1015,5 hPa 0,0 l/m W-SW 0,00 h 13 W/m 24,7 km/h (4 Bft)
05.10.2013 19:00 14,4 C 87 % 1016,2 hPa 0,0 l/m W-SW 0,00 h 0 W/m 22,5 km/h (4 Bft)
05.10.2013 20:00 14,1 C 87 % 1016,8 hPa 0,0 l/m W-SW 0,00 h 0 W/m 21,7 km/h (4 Bft)
05.10.2013 21:00 13,5 C 90 % 1017,4 hPa 0,0 l/m W-SW 0,00 h 0 W/m 22,1 km/h (4 Bft)
05.10.2013 22:00 13,0 C 93 % 1017,7 hPa 0,0 l/m W-SW 0,00 h 0 W/m 22,9 km/h (4 Bft)
05.10.2013 23:00 12,7 C 94 % 1018,0 hPa 0,4 l/m W-SW 0,00 h 0 W/m 19,0 km/h (3 Bft)
06.10.2013 00:00 12,3 C 97 % 1018,2 hPa 0,6 l/m SW 0,00 h 0 W/m 12,6 km/h (3 Bft)
06.10.2013 01:00 12,2 C 98 % 1018,3 hPa 0,2 l/m W-SW 0,00 h 0 W/m 10,9 km/h (2 Bft)
06.10.2013 02:00 12,2 C 98 % 1018,5 hPa 0,2 l/m SW 0,00 h 0 W/m 9,5 km/h (2 Bft)
06.10.2013 03:00 12,3 C 98 % 1018,5 hPa 0,0 l/m SW 0,00 h 0 W/m 8,9 km/h (2 Bft)
06.10.2013 04:00 12,3 C 98 % 1018,6 hPa 0,0 l/m SW 0,00 h 0 W/m 11,7 km/h (2 Bft)
06.10.2013 05:00 12,3 C 98 % 1018,7 hPa 0,0 l/m SW 0,00 h 0 W/m 8,9 km/h (2 Bft)
06.10.2013 06:00 12,3 C 98 % 1018,8 hPa 0,4 l/m W-SW 0,00 h 0 W/m 6,3 km/h (2 Bft)
06.10.2013 07:00 12,2 C 99 % 1019,1 hPa 0,0 l/m SW 0,00 h 9 W/m 6,5 km/h (2 Bft)
06.10.2013 08:00 12,3 C 99 % 1019,5 hPa 0,0 l/m SW 0,00 h 19 W/m 7,4 km/h (2 Bft)
06.10.2013 09:00 12,5 C 99 % 1019,8 hPa 0,0 l/m SW 0,00 h 58 W/m 9,3 km/h (2 Bft)
06.10.2013 10:00 13,0 C 98 % 1020,3 hPa 0,0 l/m SW 0,00 h 70 W/m 9,8 km/h (2 Bft)
06.10.2013 11:00 11,7 C 96 % 1020,7 hPa 0,4 l/m N-NW 0,00 h 50 W/m 9,7 km/h (2 Bft)
06.10.2013 12:00 11,0 C 97 % 1021,2 hPa 0,0 l/m N-NO 0,00 h 73 W/m 9,7 km/h (2 Bft)
06.10.2013 13:00 11,2 C 97 % 1021,3 hPa 0,0 l/m N-NO 0,00 h 86 W/m 7,5 km/h (2 Bft)
06.10.2013 14:00 11,6 C 94 % 1021,3 hPa 0,0 l/m N-NO 0,00 h 97 W/m 4,9 km/h (1 Bft)
06.10.2013 15:00 11,8 C 93 % 1021,5 hPa 0,0 l/m N-NO 0,00 h 60 W/m 3,7 km/h (1 Bft)
06.10.2013 16:00 11,8 C 92 % 1021,5 hPa 0,0 l/m N 0,00 h 77 W/m 8,2 km/h (2 Bft)
06.10.2013 17:00 11,4 C 92 % 1021,7 hPa 0,0 l/m N 0,00 h 26 W/m 5,5 km/h (1 Bft)
06.10.2013 18:00 11,3 C 92 % 1022,2 hPa 0,0 l/m N 0,00 h 9 W/m 6,4 km/h (2 Bft)
06.10.2013 19:00 10,9 C 93 % 1022,8 hPa 0,0 l/m N 0,00 h 0 W/m 5,7 km/h (1 Bft)
06.10.2013 20:00 10,6 C 94 % 1023,2 hPa 0,0 l/m N 0,00 h 0 W/m 3,9 km/h (1 Bft)
06.10.2013 21:00 10,5 C 95 % 1023,3 hPa 0,0 l/m N 0,00 h 0 W/m 4,0 km/h (1 Bft)
06.10.2013 22:00 10,2 C 95 % 1023,5 hPa 0,0 l/m N 0,00 h 0 W/m 2,3 km/h (1 Bft)
06.10.2013 23:00 9,8 C 96 % 1023,6 hPa 0,0 l/m N 0,00 h 0 W/m 2,7 km/h (1 Bft)
Min-Datum _ 03.10.13 01.10.13 30.09.13 - - - - 30.09.13
_ Min-Zeit 02:35 16:25 04:20 - - - - 22:30
Minimum _ 3,1 C 67 % 1004,3 hPa - - - - 0,0 km/h (0 Bft)
Max-Datum _ 04.10.13 05.10.13 06.10.13 05.10.13 - 01.10.13 01.10.13 05.10.13
_ Max-Zeit 16:50 04:10 23:35 08:05 - 12:10 14:05 17:55
Maximum _ 19,7 C 100 % 1023,8 hPa 4,4 l/m - 0,08 h 777 W/m 33,8 km/h
SW (5 Bft)
Durchschnitt _ 10,2 C 90 % 1015,3 hPa #14,0 l/m O-NO #17:50 h 152 W/m 7,6 km/h (2 Bft)